sensor_id;sensor_type;location;lat;lon;timestamp;pressure;altitude;pressure_sealevel;temperature;humidity
8101;BME280;4093;53.470;9.832;2023-08-08T00:01:54;100792.19;;;16.58;78.83
8101;BME280;4093;53.470;9.832;2023-08-08T00:04:22;100792.47;;;16.93;78.46
8101;BME280;4093;53.470;9.832;2023-08-08T00:06:50;100776.56;;;16.36;80.10
8101;BME280;4093;53.470;9.832;2023-08-08T00:09:18;100766.97;;;16.14;81.76
8101;BME280;4093;53.470;9.832;2023-08-08T00:11:47;100788.19;;;16.49;80.98
8101;BME280;4093;53.470;9.832;2023-08-08T00:14:15;100786.41;;;16.50;80.43
8101;BME280;4093;53.470;9.832;2023-08-08T00:16:42;100796.66;;;16.54;80.64
8101;BME280;4093;53.470;9.832;2023-08-08T00:19:10;100803.81;;;16.71;80.82
8101;BME280;4093;53.470;9.832;2023-08-08T00:21:38;100788.78;;;16.76;79.74
8101;BME280;4093;53.470;9.832;2023-08-08T00:24:05;100794.13;;;16.73;79.84
8101;BME280;4093;53.470;9.832;2023-08-08T00:26:33;100779.25;;;16.55;81.56
8101;BME280;4093;53.470;9.832;2023-08-08T00:29:02;100803.91;;;16.90;80.14
8101;BME280;4093;53.470;9.832;2023-08-08T00:31:30;100809.50;;;16.81;80.71
8101;BME280;4093;53.470;9.832;2023-08-08T00:33:58;100816.16;;;16.88;81.56
8101;BME280;4093;53.470;9.832;2023-08-08T00:36:26;100805.13;;;17.02;82.22
8101;BME280;4093;53.470;9.832;2023-08-08T00:38:53;100802.78;;;16.96;82.12
8101;BME280;4093;53.470;9.832;2023-08-08T00:41:21;100823.25;;;17.46;79.89
8101;BME280;4093;53.470;9.832;2023-08-08T00:43:49;100786.75;;;17.24;81.29
8101;BME280;4093;53.470;9.832;2023-08-08T00:46:20;100795.56;;;17.21;81.97
8101;BME280;4093;53.470;9.832;2023-08-08T00:48:50;100783.97;;;17.08;81.57
8101;BME280;4093;53.470;9.832;2023-08-08T00:51:19;100766.13;;;16.56;83.87
8101;BME280;4093;53.470;9.832;2023-08-08T00:53:48;100787.34;;;17.10;82.83
8101;BME280;4093;53.470;9.832;2023-08-08T00:56:17;100777.81;;;16.68;82.88
8101;BME280;4093;53.470;9.832;2023-08-08T00:58:45;100793.06;;;16.99;83.54
8101;BME280;4093;53.470;9.832;2023-08-08T01:01:13;100777.69;;;16.92;83.13
8101;BME280;4093;53.470;9.832;2023-08-08T01:03:42;100786.38;;;16.92;84.23
8101;BME280;4093;53.470;9.832;2023-08-08T01:06:13;100796.13;;;17.09;82.96
8101;BME280;4093;53.470;9.832;2023-08-08T01:08:47;100793.09;;;16.98;83.94
8101;BME280;4093;53.470;9.832;2023-08-08T01:11:16;100784.53;;;16.74;85.32
8101;BME280;4093;53.470;9.832;2023-08-08T01:13:45;100795.38;;;16.64;85.79
8101;BME280;4093;53.470;9.832;2023-08-08T01:16:13;100784.84;;;16.46;85.80
8101;BME280;4093;53.470;9.832;2023-08-08T01:18:46;100786.28;;;16.73;85.15
8101;BME280;4093;53.470;9.832;2023-08-08T01:21:15;100787.69;;;16.82;84.92
8101;BME280;4093;53.470;9.832;2023-08-08T01:23:46;100781.38;;;16.87;84.69
8101;BME280;4093;53.470;9.832;2023-08-08T01:26:16;100756.66;;;16.54;85.72
8101;BME280;4093;53.470;9.832;2023-08-08T01:28:44;100776.00;;;16.91;84.95
8101;BME280;4093;53.470;9.832;2023-08-08T01:31:12;100754.41;;;16.45;86.13
8101;BME280;4093;53.470;9.832;2023-08-08T01:33:40;100773.34;;;16.70;85.56
8101;BME280;4093;53.470;9.832;2023-08-08T01:36:14;100769.31;;;16.63;85.34
8101;BME280;4093;53.470;9.832;2023-08-08T01:38:49;100754.25;;;16.49;85.61
8101;BME280;4093;53.470;9.832;2023-08-08T01:41:20;100750.72;;;16.50;85.77
8101;BME280;4093;53.470;9.832;2023-08-08T01:43:49;100759.00;;;16.60;85.33
8101;BME280;4093;53.470;9.832;2023-08-08T01:46:17;100765.81;;;16.64;83.91
8101;BME280;4093;53.470;9.832;2023-08-08T01:48:45;100739.50;;;16.06;85.75
8101;BME280;4093;53.470;9.832;2023-08-08T01:51:14;100762.88;;;16.29;85.19
8101;BME280;4093;53.470;9.832;2023-08-08T01:53:41;100753.13;;;16.34;84.72
8101;BME280;4093;53.470;9.832;2023-08-08T01:56:09;100757.50;;;16.34;84.51
8101;BME280;4093;53.470;9.832;2023-08-08T01:58:38;100748.63;;;16.16;86.08
8101;BME280;4093;53.470;9.832;2023-08-08T02:01:06;100750.66;;;16.09;86.21
8101;BME280;4093;53.470;9.832;2023-08-08T02:03:33;100752.78;;;16.22;85.58
8101;BME280;4093;53.470;9.832;2023-08-08T02:06:01;100742.66;;;16.14;86.34
8101;BME280;4093;53.470;9.832;2023-08-08T02:08:29;100749.94;;;16.26;86.04
8101;BME280;4093;53.470;9.832;2023-08-08T02:10:57;100755.69;;;16.14;86.20
8101;BME280;4093;53.470;9.832;2023-08-08T02:13:24;100748.34;;;16.24;86.07
8101;BME280;4093;53.470;9.832;2023-08-08T02:15:53;100755.56;;;16.17;86.51
8101;BME280;4093;53.470;9.832;2023-08-08T02:18:21;100742.91;;;15.86;89.20
8101;BME280;4093;53.470;9.832;2023-08-08T02:20:49;100752.22;;;15.91;88.98
8101;BME280;4093;53.470;9.832;2023-08-08T02:23:17;100742.16;;;15.82;89.11
8101;BME280;4093;53.470;9.832;2023-08-08T02:25:45;100742.59;;;16.15;88.20
8101;BME280;4093;53.470;9.832;2023-08-08T02:28:12;100744.09;;;16.41;87.21
8101;BME280;4093;53.470;9.832;2023-08-08T02:30:40;100720.88;;;15.71;90.41
8101;BME280;4093;53.470;9.832;2023-08-08T02:33:09;100721.72;;;15.71;90.67
8101;BME280;4093;53.470;9.832;2023-08-08T02:35:37;100740.19;;;16.11;89.20
8101;BME280;4093;53.470;9.832;2023-08-08T02:38:05;100728.09;;;15.86;89.95
8101;BME280;4093;53.470;9.832;2023-08-08T02:40:32;100728.16;;;15.85;89.91
8101;BME280;4093;53.470;9.832;2023-08-08T02:43:00;100746.72;;;16.41;87.80
8101;BME280;4093;53.470;9.832;2023-08-08T02:45:28;100737.16;;;16.20;88.06
8101;BME280;4093;53.470;9.832;2023-08-08T02:47:55;100739.50;;;15.84;89.23
8101;BME280;4093;53.470;9.832;2023-08-08T02:50:25;100701.09;;;15.65;89.65
8101;BME280;4093;53.470;9.832;2023-08-08T02:52:52;100736.81;;;16.07;88.67
8101;BME280;4093;53.470;9.832;2023-08-08T02:55:20;100734.16;;;16.09;88.10
8101;BME280;4093;53.470;9.832;2023-08-08T02:57:48;100711.66;;;15.84;88.59
8101;BME280;4093;53.470;9.832;2023-08-08T03:00:16;100717.97;;;16.01;88.39
8101;BME280;4093;53.470;9.832;2023-08-08T03:02:43;100721.84;;;15.90;89.01
8101;BME280;4093;53.470;9.832;2023-08-08T03:05:11;100739.00;;;16.18;88.80
8101;BME280;4093;53.470;9.832;2023-08-08T03:07:40;100714.44;;;16.24;87.44
8101;BME280;4093;53.470;9.832;2023-08-08T03:10:08;100716.03;;;16.06;88.09
8101;BME280;4093;53.470;9.832;2023-08-08T03:12:37;100710.94;;;15.81;89.62
8101;BME280;4093;53.470;9.832;2023-08-08T03:15:07;100722.53;;;15.95;88.69
8101;BME280;4093;53.470;9.832;2023-08-08T03:17:34;100724.22;;;15.96;89.04
8101;BME280;4093;53.470;9.832;2023-08-08T03:20:02;100727.91;;;16.13;88.25
8101;BME280;4093;53.470;9.832;2023-08-08T03:22:32;100719.56;;;16.05;88.86
8101;BME280;4093;53.470;9.832;2023-08-08T03:25:02;100715.91;;;16.09;88.67
8101;BME280;4093;53.470;9.832;2023-08-08T03:27:30;100720.06;;;16.13;88.56
8101;BME280;4093;53.470;9.832;2023-08-08T03:29:58;100704.44;;;15.91;88.72
8101;BME280;4093;53.470;9.832;2023-08-08T03:32:27;100711.81;;;16.24;87.29
8101;BME280;4093;53.470;9.832;2023-08-08T03:34:55;100707.50;;;16.23;87.77
8101;BME280;4093;53.470;9.832;2023-08-08T03:37:23;100676.97;;;15.82;89.20
8101;BME280;4093;53.470;9.832;2023-08-08T03:39:50;100694.19;;;16.08;88.96
8101;BME280;4093;53.470;9.832;2023-08-08T03:42:20;100688.50;;;15.99;88.78
8101;BME280;4093;53.470;9.832;2023-08-08T03:44:47;100699.63;;;16.24;88.49
8101;BME280;4093;53.470;9.832;2023-08-08T03:47:15;100686.31;;;15.88;89.41
8101;BME280;4093;53.470;9.832;2023-08-08T03:49:46;100693.81;;;16.17;88.46
8101;BME280;4093;53.470;9.832;2023-08-08T03:52:14;100665.25;;;15.48;91.77
8101;BME280;4093;53.470;9.832;2023-08-08T03:54:42;100695.78;;;15.90;89.52
8101;BME280;4093;53.470;9.832;2023-08-08T03:57:10;100682.63;;;15.93;89.62
8101;BME280;4093;53.470;9.832;2023-08-08T03:59:39;100685.13;;;15.95;88.86
8101;BME280;4093;53.470;9.832;2023-08-08T04:02:07;100676.97;;;15.82;89.12
8101;BME280;4093;53.470;9.832;2023-08-08T04:04:35;100682.69;;;16.12;87.98
8101;BME280;4093;53.470;9.832;2023-08-08T04:07:03;100684.94;;;16.22;87.80
8101;BME280;4093;53.470;9.832;2023-08-08T04:09:30;100687.34;;;16.26;87.93
8101;BME280;4093;53.470;9.832;2023-08-08T04:11:59;100689.25;;;16.43;86.41
8101;BME280;4093;53.470;9.832;2023-08-08T04:14:27;100683.38;;;16.38;86.91
8101;BME280;4093;53.470;9.832;2023-08-08T04:16:56;100676.19;;;16.23;87.57
8101;BME280;4093;53.470;9.832;2023-08-08T04:19:24;100671.81;;;16.03;87.94
8101;BME280;4093;53.470;9.832;2023-08-08T04:21:52;100691.00;;;16.42;86.80
8101;BME280;4093;53.470;9.832;2023-08-08T04:24:20;100674.88;;;16.12;87.54
8101;BME280;4093;53.470;9.832;2023-08-08T04:26:47;100679.06;;;16.37;86.85
8101;BME280;4093;53.470;9.832;2023-08-08T04:29:15;100685.53;;;16.28;87.34
8101;BME280;4093;53.470;9.832;2023-08-08T04:31:43;100691.72;;;16.46;86.37
8101;BME280;4093;53.470;9.832;2023-08-08T04:34:12;100693.09;;;16.55;86.70
8101;BME280;4093;53.470;9.832;2023-08-08T04:36:40;100669.03;;;16.28;88.12
8101;BME280;4093;53.470;9.832;2023-08-08T04:39:07;100691.84;;;16.63;86.21
8101;BME280;4093;53.470;9.832;2023-08-08T04:41:35;100674.16;;;16.29;87.62
8101;BME280;4093;53.470;9.832;2023-08-08T04:44:03;100675.59;;;16.57;85.85
8101;BME280;4093;53.470;9.832;2023-08-08T04:46:31;100682.69;;;16.94;84.53
8101;BME280;4093;53.470;9.832;2023-08-08T04:48:58;100653.41;;;16.47;86.09
8101;BME280;4093;53.470;9.832;2023-08-08T04:51:28;100659.03;;;16.58;85.72
8101;BME280;4093;53.470;9.832;2023-08-08T04:53:55;100664.69;;;16.68;85.33
8101;BME280;4093;53.470;9.832;2023-08-08T04:56:23;100654.25;;;16.47;85.95
8101;BME280;4093;53.470;9.832;2023-08-08T04:58:52;100669.28;;;17.02;83.51
8101;BME280;4093;53.470;9.832;2023-08-08T05:01:20;100665.38;;;16.92;83.54
8101;BME280;4093;53.470;9.832;2023-08-08T05:03:48;100683.81;;;17.45;81.85
8101;BME280;4093;53.470;9.832;2023-08-08T05:06:18;100647.31;;;16.87;83.11
8101;BME280;4093;53.470;9.832;2023-08-08T05:08:49;100667.94;;;17.12;82.71
8101;BME280;4093;53.470;9.832;2023-08-08T05:11:17;100644.75;;;16.85;83.25
8101;BME280;4093;53.470;9.832;2023-08-08T05:13:45;100664.06;;;17.02;82.97
8101;BME280;4093;53.470;9.832;2023-08-08T05:16:13;100670.69;;;17.09;82.69
8101;BME280;4093;53.470;9.832;2023-08-08T05:18:40;100668.00;;;17.29;81.66
8101;BME280;4093;53.470;9.832;2023-08-08T05:21:10;100659.31;;;17.10;82.05
8101;BME280;4093;53.470;9.832;2023-08-08T05:23:38;100657.06;;;17.21;81.17
8101;BME280;4093;53.470;9.832;2023-08-08T05:26:07;100681.25;;;18.68;76.58
8101;BME280;4093;53.470;9.832;2023-08-08T05:28:35;100661.72;;;19.71;72.74
8101;BME280;4093;53.470;9.832;2023-08-08T05:31:02;100656.53;;;21.71;66.49
8101;BME280;4093;53.470;9.832;2023-08-08T05:33:30;100627.06;;;20.69;67.77
8101;BME280;4093;53.470;9.832;2023-08-08T05:35:59;100605.75;;;19.40;72.27
8101;BME280;4093;53.470;9.832;2023-08-08T05:38:27;100620.78;;;18.89;74.65
8101;BME280;4093;53.470;9.832;2023-08-08T05:40:54;100616.00;;;18.31;77.10
8101;BME280;4093;53.470;9.832;2023-08-08T05:43:24;100620.25;;;17.62;80.67
8101;BME280;4093;53.470;9.832;2023-08-08T05:45:53;100626.88;;;18.06;79.21
8101;BME280;4093;53.470;9.832;2023-08-08T05:48:21;100634.31;;;17.78;80.84
8101;BME280;4093;53.470;9.832;2023-08-08T05:50:49;100630.56;;;17.84;80.80
8101;BME280;4093;53.470;9.832;2023-08-08T05:53:16;100623.00;;;18.30;78.87
8101;BME280;4093;53.470;9.832;2023-08-08T05:55:44;100628.84;;;18.68;78.04
8101;BME280;4093;53.470;9.832;2023-08-08T05:58:12;100643.97;;;18.97;77.76
8101;BME280;4093;53.470;9.832;2023-08-08T06:00:41;100649.47;;;20.01;74.84
8101;BME280;4093;53.470;9.832;2023-08-08T06:03:09;100654.28;;;20.82;70.91
8101;BME280;4093;53.470;9.832;2023-08-08T06:05:37;100627.53;;;19.56;74.05
8101;BME280;4093;53.470;9.832;2023-08-08T06:08:05;100610.13;;;19.24;74.08
8101;BME280;4093;53.470;9.832;2023-08-08T06:10:37;100625.50;;;18.49;77.45
8101;BME280;4093;53.470;9.832;2023-08-08T06:13:05;100640.91;;;18.55;77.66
8101;BME280;4093;53.470;9.832;2023-08-08T06:15:33;100639.25;;;18.37;78.49
8101;BME280;4093;53.470;9.832;2023-08-08T06:18:02;100635.16;;;18.31;78.50
8101;BME280;4093;53.470;9.832;2023-08-08T06:20:30;100644.47;;;18.87;76.55
8101;BME280;4093;53.470;9.832;2023-08-08T06:22:58;100648.81;;;19.98;75.19
8101;BME280;4093;53.470;9.832;2023-08-08T06:25:25;100652.19;;;21.84;66.57
8101;BME280;4093;53.470;9.832;2023-08-08T06:27:54;100633.53;;;23.76;59.86
8101;BME280;4093;53.470;9.832;2023-08-08T06:30:22;100632.47;;;25.04;56.86
8101;BME280;4093;53.470;9.832;2023-08-08T06:32:49;100595.47;;;22.44;62.09
8101;BME280;4093;53.470;9.832;2023-08-08T06:35:18;100615.47;;;22.72;63.11
8101;BME280;4093;53.470;9.832;2023-08-08T06:37:46;100617.03;;;21.17;65.98
8101;BME280;4093;53.470;9.832;2023-08-08T06:40:14;100610.88;;;20.32;67.81
8101;BME280;4093;53.470;9.832;2023-08-08T06:42:42;100614.81;;;20.96;66.60
8101;BME280;4093;53.470;9.832;2023-08-08T06:45:10;100600.13;;;23.27;60.17
8101;BME280;4093;53.470;9.832;2023-08-08T06:47:37;100607.78;;;25.90;54.05
8101;BME280;4093;53.470;9.832;2023-08-08T06:50:06;100579.97;;;25.64;53.46
8101;BME280;4093;53.470;9.832;2023-08-08T06:52:35;100581.88;;;24.30;56.63
8101;BME280;4093;53.470;9.832;2023-08-08T06:55:04;100583.44;;;25.64;54.23
8101;BME280;4093;53.470;9.832;2023-08-08T06:57:33;100584.88;;;27.99;49.07
8101;BME280;4093;53.470;9.832;2023-08-08T07:00:01;100569.59;;;26.94;50.69
8101;BME280;4093;53.470;9.832;2023-08-08T07:02:31;100576.44;;;26.87;51.07
8101;BME280;4093;53.470;9.832;2023-08-08T07:04:59;100562.75;;;25.79;53.05
8101;BME280;4093;53.470;9.832;2023-08-08T07:07:27;100578.19;;;26.58;51.71
8101;BME280;4093;53.470;9.832;2023-08-08T07:09:57;100573.53;;;25.98;52.50
8101;BME280;4093;53.470;9.832;2023-08-08T07:12:25;100596.66;;;25.96;53.95
8101;BME280;4093;53.470;9.832;2023-08-08T07:14:53;100586.56;;;27.42;49.41
8101;BME280;4093;53.470;9.832;2023-08-08T07:17:21;100589.53;;;26.18;51.64
8101;BME280;4093;53.470;9.832;2023-08-08T07:19:48;100603.13;;;24.17;56.89
8101;BME280;4093;53.470;9.832;2023-08-08T07:22:17;100605.66;;;24.30;56.99
8101;BME280;4093;53.470;9.832;2023-08-08T07:24:44;100605.91;;;23.80;58.21
8101;BME280;4093;53.470;9.832;2023-08-08T07:27:13;100594.38;;;26.13;52.48
8101;BME280;4093;53.470;9.832;2023-08-08T07:29:41;100607.88;;;26.51;53.13
8101;BME280;4093;53.470;9.832;2023-08-08T07:32:09;100590.31;;;26.08;53.17
8101;BME280;4093;53.470;9.832;2023-08-08T07:34:37;100588.41;;;25.78;53.83
8101;BME280;4093;53.470;9.832;2023-08-08T07:37:05;100582.53;;;25.86;54.53
8101;BME280;4093;53.470;9.832;2023-08-08T07:39:32;100584.44;;;26.57;52.39
8101;BME280;4093;53.470;9.832;2023-08-08T07:42:00;100590.72;;;25.07;57.57
8101;BME280;4093;53.470;9.832;2023-08-08T07:44:29;100583.03;;;25.04;57.05
8101;BME280;4093;53.470;9.832;2023-08-08T07:46:58;100604.66;;;24.08;59.64
8101;BME280;4093;53.470;9.832;2023-08-08T07:49:26;100596.66;;;23.74;60.19
8101;BME280;4093;53.470;9.832;2023-08-08T07:51:53;100604.19;;;22.70;62.75
8101;BME280;4093;53.470;9.832;2023-08-08T07:54:21;100605.06;;;22.32;65.29
8101;BME280;4093;53.470;9.832;2023-08-08T07:56:49;100605.19;;;21.78;65.78
8101;BME280;4093;53.470;9.832;2023-08-08T07:59:16;100601.22;;;21.31;68.24
8101;BME280;4093;53.470;9.832;2023-08-08T08:01:45;100623.66;;;22.04;67.07
8101;BME280;4093;53.470;9.832;2023-08-08T08:04:13;100625.28;;;20.55;69.73
8101;BME280;4093;53.470;9.832;2023-08-08T08:06:41;100616.91;;;20.48;70.57
8101;BME280;4093;53.470;9.832;2023-08-08T08:09:10;100628.88;;;20.09;72.03
8101;BME280;4093;53.470;9.832;2023-08-08T08:11:38;100632.56;;;19.91;73.87
8101;BME280;4093;53.470;9.832;2023-08-08T08:14:06;100640.25;;;19.94;74.12
8101;BME280;4093;53.470;9.832;2023-08-08T08:16:33;100635.00;;;19.94;74.60
8101;BME280;4093;53.470;9.832;2023-08-08T08:19:03;100647.47;;;19.91;75.91
8101;BME280;4093;53.470;9.832;2023-08-08T08:21:30;100631.25;;;19.84;74.82
8101;BME280;4093;53.470;9.832;2023-08-08T08:23:58;100658.56;;;20.40;73.53
8101;BME280;4093;53.470;9.832;2023-08-08T08:26:26;100649.38;;;19.73;74.46
8101;BME280;4093;53.470;9.832;2023-08-08T08:28:54;100650.53;;;19.83;74.01
8101;BME280;4093;53.470;9.832;2023-08-08T08:31:22;100668.06;;;20.13;73.50
8101;BME280;4093;53.470;9.832;2023-08-08T08:33:49;100666.88;;;20.18;73.02
8101;BME280;4093;53.470;9.832;2023-08-08T08:36:18;100664.38;;;20.01;73.36
8101;BME280;4093;53.470;9.832;2023-08-08T08:38:47;100661.06;;;19.67;74.70
8101;BME280;4093;53.470;9.832;2023-08-08T08:41:17;100672.38;;;20.14;73.56
8101;BME280;4093;53.470;9.832;2023-08-08T08:43:46;100670.34;;;20.33;72.14
8101;BME280;4093;53.470;9.832;2023-08-08T08:46:20;100672.97;;;20.92;69.53
8101;BME280;4093;53.470;9.832;2023-08-08T08:48:49;100657.84;;;20.67;68.51
8101;BME280;4093;53.470;9.832;2023-08-08T08:51:18;100656.53;;;20.60;68.60
8101;BME280;4093;53.470;9.832;2023-08-08T08:53:47;100651.13;;;20.18;69.17
8101;BME280;4093;53.470;9.832;2023-08-08T08:56:15;100661.88;;;20.58;68.28
8101;BME280;4093;53.470;9.832;2023-08-08T08:58:43;100660.50;;;20.37;67.70
8101;BME280;4093;53.470;9.832;2023-08-08T09:01:11;100671.94;;;20.80;66.66
8101;BME280;4093;53.470;9.832;2023-08-08T09:03:39;100654.38;;;20.66;66.39
8101;BME280;4093;53.470;9.832;2023-08-08T09:06:09;100659.47;;;20.39;67.16
8101;BME280;4093;53.470;9.832;2023-08-08T09:08:38;100653.91;;;20.15;67.89
8101;BME280;4093;53.470;9.832;2023-08-08T09:11:05;100672.53;;;20.41;67.29
8101;BME280;4093;53.470;9.832;2023-08-08T09:13:36;100661.91;;;20.28;67.59
8101;BME280;4093;53.470;9.832;2023-08-08T09:16:05;100654.00;;;20.14;68.14
8101;BME280;4093;53.470;9.832;2023-08-08T09:18:33;100666.41;;;19.96;67.99
8101;BME280;4093;53.470;9.832;2023-08-08T09:21:01;100667.53;;;20.22;67.72
8101;BME280;4093;53.470;9.832;2023-08-08T09:23:29;100667.47;;;20.38;68.36
8101;BME280;4093;53.470;9.832;2023-08-08T09:25:58;100677.63;;;20.58;68.76
8101;BME280;4093;53.470;9.832;2023-08-08T09:28:26;100675.53;;;20.49;70.33
8101;BME280;4093;53.470;9.832;2023-08-08T09:30:54;100663.25;;;20.35;68.99
8101;BME280;4093;53.470;9.832;2023-08-08T09:33:22;100665.81;;;20.21;69.69
8101;BME280;4093;53.470;9.832;2023-08-08T09:35:53;100668.25;;;20.09;69.99
8101;BME280;4093;53.470;9.832;2023-08-08T09:38:21;100666.63;;;20.37;69.61
8101;BME280;4093;53.470;9.832;2023-08-08T09:40:49;100644.38;;;20.28;68.42
8101;BME280;4093;53.470;9.832;2023-08-08T09:43:18;100653.47;;;19.93;68.37
8101;BME280;4093;53.470;9.832;2023-08-08T09:45:47;100668.31;;;20.38;67.07
8101;BME280;4093;53.470;9.832;2023-08-08T09:48:15;100656.13;;;19.61;70.15
8101;BME280;4093;53.470;9.832;2023-08-08T09:50:44;100671.72;;;19.64;71.93
8101;BME280;4093;53.470;9.832;2023-08-08T09:53:12;100669.84;;;19.50;72.58
8101;BME280;4093;53.470;9.832;2023-08-08T09:55:40;100669.09;;;19.16;73.67
8101;BME280;4093;53.470;9.832;2023-08-08T09:58:09;100676.94;;;19.01;73.76
8101;BME280;4093;53.470;9.832;2023-08-08T10:00:38;100685.91;;;19.12;74.29
8101;BME280;4093;53.470;9.832;2023-08-08T10:03:07;100693.69;;;19.46;73.12
8101;BME280;4093;53.470;9.832;2023-08-08T10:05:35;100694.72;;;19.27;73.54
8101;BME280;4093;53.470;9.832;2023-08-08T10:08:03;100695.28;;;19.01;73.80
8101;BME280;4093;53.470;9.832;2023-08-08T10:10:32;100710.41;;;19.11;74.04
8101;BME280;4093;53.470;9.832;2023-08-08T10:13:00;100691.19;;;19.44;73.53
8101;BME280;4093;53.470;9.832;2023-08-08T10:15:28;100705.50;;;19.05;75.78
8101;BME280;4093;53.470;9.832;2023-08-08T10:17:58;100707.31;;;19.21;75.47
8101;BME280;4093;53.470;9.832;2023-08-08T10:20:31;100694.53;;;19.14;75.73
8101;BME280;4093;53.470;9.832;2023-08-08T10:23:02;100715.47;;;19.48;74.48
8101;BME280;4093;53.470;9.832;2023-08-08T10:25:30;100695.81;;;19.39;73.34
8101;BME280;4093;53.470;9.832;2023-08-08T10:28:03;100713.28;;;19.56;74.01
8101;BME280;4093;53.470;9.832;2023-08-08T10:30:54;100703.28;;;19.62;72.80
8101;BME280;4093;53.470;9.832;2023-08-08T10:33:25;100693.13;;;20.18;73.06
8101;BME280;4093;53.470;9.832;2023-08-08T10:36:00;100685.91;;;20.95;70.48
8101;BME280;4093;53.470;9.832;2023-08-08T10:38:39;100666.66;;;21.37;69.18
8101;BME280;4093;53.470;9.832;2023-08-08T10:41:09;100648.00;;;20.56;69.18
8101;BME280;4093;53.470;9.832;2023-08-08T10:43:38;100666.69;;;20.94;69.09
8101;BME280;4093;53.470;9.832;2023-08-08T10:46:13;100675.06;;;21.42;67.64
8101;BME280;4093;53.470;9.832;2023-08-08T10:48:50;100649.41;;;20.76;70.37
8101;BME280;4093;53.470;9.832;2023-08-08T10:51:18;100640.38;;;20.51;71.38
8101;BME280;4093;53.470;9.832;2023-08-08T10:53:46;100648.84;;;20.56;71.39
8101;BME280;4093;53.470;9.832;2023-08-08T10:56:14;100646.94;;;20.44;71.07
8101;BME280;4093;53.470;9.832;2023-08-08T10:58:47;100675.50;;;20.79;71.38
8101;BME280;4093;53.470;9.832;2023-08-08T11:01:16;100658.31;;;19.05;75.05
8101;BME280;4093;53.470;9.832;2023-08-08T11:03:47;100653.44;;;18.99;77.94
8101;BME280;4093;53.470;9.832;2023-08-08T11:06:17;100633.63;;;18.78;77.31
8101;BME280;4093;53.470;9.832;2023-08-08T11:08:45;100665.97;;;19.10;76.71
8101;BME280;4093;53.470;9.832;2023-08-08T11:11:13;100677.72;;;19.18;77.14
8101;BME280;4093;53.470;9.832;2023-08-08T11:13:40;100688.28;;;19.17;78.66
8101;BME280;4093;53.470;9.832;2023-08-08T11:16:08;100679.28;;;18.72;78.90
8101;BME280;4093;53.470;9.832;2023-08-08T11:18:36;100689.72;;;18.56;79.21
8101;BME280;4093;53.470;9.832;2023-08-08T11:21:09;100703.16;;;19.16;77.35
8101;BME280;4093;53.470;9.832;2023-08-08T11:23:47;100676.41;;;18.43;79.41
8101;BME280;4093;53.470;9.832;2023-08-08T11:26:17;100668.66;;;18.07;80.19
8101;BME280;4093;53.470;9.832;2023-08-08T11:28:49;100687.53;;;18.31;79.78
8101;BME280;4093;53.470;9.832;2023-08-08T11:31:18;100689.66;;;18.40;80.21
8101;BME280;4093;53.470;9.832;2023-08-08T11:33:47;100683.72;;;18.54;80.55
8101;BME280;4093;53.470;9.832;2023-08-08T11:36:15;100690.47;;;18.58;79.18
8101;BME280;4093;53.470;9.832;2023-08-08T11:38:43;100688.19;;;18.35;80.23
8101;BME280;4093;53.470;9.832;2023-08-08T11:41:12;100722.84;;;18.57;79.44
8101;BME280;4093;53.470;9.832;2023-08-08T11:43:41;100696.06;;;18.35;80.81
8101;BME280;4093;53.470;9.832;2023-08-08T11:46:09;100671.81;;;17.96;82.52
8101;BME280;4093;53.470;9.832;2023-08-08T11:48:37;100681.13;;;18.02;84.16
8101;BME280;4093;53.470;9.832;2023-08-08T11:51:05;100677.09;;;18.47;83.83
8101;BME280;4093;53.470;9.832;2023-08-08T11:53:33;100676.63;;;19.54;82.35
8101;BME280;4093;53.470;9.832;2023-08-08T11:56:02;100635.66;;;19.68;80.37
8101;BME280;4093;53.470;9.832;2023-08-08T11:58:35;100675.47;;;20.20;81.04
8101;BME280;4093;53.470;9.832;2023-08-08T12:01:03;100676.16;;;20.24;80.89
8101;BME280;4093;53.470;9.832;2023-08-08T12:03:31;100692.19;;;20.19;80.28
8101;BME280;4093;53.470;9.832;2023-08-08T12:05:59;100674.81;;;19.86;80.57
8101;BME280;4093;53.470;9.832;2023-08-08T12:08:30;100658.19;;;19.56;80.46
8101;BME280;4093;53.470;9.832;2023-08-08T12:11:00;100663.69;;;19.19;82.53
8101;BME280;4093;53.470;9.832;2023-08-08T12:13:30;100644.69;;;18.83;82.77
8101;BME280;4093;53.470;9.832;2023-08-08T12:16:00;100650.53;;;18.88;82.66
8101;BME280;4093;53.470;9.832;2023-08-08T12:18:29;100660.97;;;19.53;80.60
8101;BME280;4093;53.470;9.832;2023-08-08T12:20:57;100649.13;;;19.46;81.01
8101;BME280;4093;53.470;9.832;2023-08-08T12:23:26;100626.88;;;19.05;80.47
8101;BME280;4093;53.470;9.832;2023-08-08T12:25:54;100657.97;;;19.91;78.55
8101;BME280;4093;53.470;9.832;2023-08-08T12:28:22;100648.59;;;20.45;77.97
8101;BME280;4093;53.470;9.832;2023-08-08T12:30:49;100641.38;;;20.34;78.80
8101;BME280;4093;53.470;9.832;2023-08-08T12:33:18;100647.28;;;20.38;78.79
8101;BME280;4093;53.470;9.832;2023-08-08T12:35:47;100619.88;;;19.83;79.87
8101;BME280;4093;53.470;9.832;2023-08-08T12:38:15;100628.09;;;20.07;79.87
8101;BME280;4093;53.470;9.832;2023-08-08T12:40:43;100612.50;;;19.90;77.87
8101;BME280;4093;53.470;9.832;2023-08-08T12:43:11;100622.50;;;19.83;79.31
8101;BME280;4093;53.470;9.832;2023-08-08T12:45:43;100616.22;;;19.86;78.45
8101;BME280;4093;53.470;9.832;2023-08-08T12:48:11;100628.69;;;20.27;79.33
8101;BME280;4093;53.470;9.832;2023-08-08T12:50:40;100614.97;;;20.66;76.97
8101;BME280;4093;53.470;9.832;2023-08-08T12:53:08;100629.94;;;21.07;77.79
8101;BME280;4093;53.470;9.832;2023-08-08T12:55:36;100620.56;;;21.30;77.88
8101;BME280;4093;53.470;9.832;2023-08-08T12:58:05;100608.31;;;20.75;77.07
8101;BME280;4093;53.470;9.832;2023-08-08T13:00:33;100608.38;;;21.29;75.88
8101;BME280;4093;53.470;9.832;2023-08-08T13:03:01;100608.50;;;21.55;75.42
8101;BME280;4093;53.470;9.832;2023-08-08T13:05:29;100594.59;;;20.84;75.64
8101;BME280;4093;53.470;9.832;2023-08-08T13:07:58;100605.06;;;20.98;75.30
8101;BME280;4093;53.470;9.832;2023-08-08T13:10:26;100590.63;;;20.77;74.54
8101;BME280;4093;53.470;9.832;2023-08-08T13:12:53;100600.84;;;20.39;76.20
8101;BME280;4093;53.470;9.832;2023-08-08T13:15:22;100598.19;;;20.10;77.15
8101;BME280;4093;53.470;9.832;2023-08-08T13:17:50;100587.41;;;20.15;72.70